createdAt,value
2022-10-02T00:00:38.747Z,70.96
2022-10-02T00:03:12.568Z,71.01
2022-10-02T00:05:44.486Z,70.98
2022-10-02T00:08:18.140Z,70.98
2022-10-02T00:10:53.347Z,70.97
2022-10-02T00:13:26.906Z,71.05
2022-10-02T00:15:56.159Z,71.09
2022-10-02T00:18:28.866Z,71.16
2022-10-02T00:21:03.989Z,71.11
2022-10-02T00:23:34.648Z,71.13
2022-10-02T00:26:08.895Z,71.06
2022-10-02T00:28:45.433Z,71.26
2022-10-02T00:31:28.542Z,71.32
2022-10-02T00:34:12.988Z,71.40
2022-10-02T00:36:54.160Z,71.27
2022-10-02T00:39:33.530Z,71.34
2022-10-02T00:42:32.755Z,71.46
2022-10-02T00:45:40.126Z,71.58
2022-10-02T00:48:26.379Z,71.60
2022-10-02T00:51:03.434Z,71.54
2022-10-02T00:53:40.437Z,71.59
2022-10-02T00:56:19.271Z,71.59
2022-10-02T00:58:59.981Z,71.57
2022-10-02T01:01:35.687Z,71.74
2022-10-02T01:04:09.403Z,71.76
2022-10-02T01:06:37.945Z,71.80
2022-10-02T01:09:06.486Z,71.77
2022-10-02T01:11:34.971Z,71.79
2022-10-02T01:14:03.861Z,71.98
2022-10-02T01:16:33.751Z,71.76
2022-10-02T01:19:02.930Z,71.85
2022-10-02T01:21:36.965Z,71.77
2022-10-02T01:24:13.272Z,71.76
2022-10-02T01:26:42.108Z,72.04
2022-10-02T01:29:11.376Z,72.00
2022-10-02T01:31:42.018Z,72.04
2022-10-02T01:34:10.490Z,71.98
2022-10-02T01:36:39.077Z,72.10
2022-10-02T01:39:07.801Z,72.06
2022-10-02T01:41:41.196Z,71.98
2022-10-02T01:44:10.386Z,72.08
2022-10-02T01:46:46.688Z,72.09
2022-10-02T01:49:34.352Z,72.12
2022-10-02T01:52:12.861Z,72.18
2022-10-02T01:55:00.684Z,72.19
2022-10-02T01:57:37.869Z,72.17
2022-10-02T02:00:11.180Z,72.23
2022-10-02T02:02:53.674Z,72.22
2022-10-02T02:05:42.304Z,72.26
2022-10-02T02:08:16.614Z,72.11
2022-10-02T02:10:53.043Z,72.34
2022-10-02T02:13:26.373Z,72.33
2022-10-02T02:16:01.164Z,72.23
2022-10-02T02:18:34.595Z,72.37
2022-10-02T02:21:08.904Z,72.33
2022-10-02T02:23:39.503Z,72.32
2022-10-02T02:26:11.801Z,72.33
2022-10-02T02:28:45.305Z,72.46
2022-10-02T02:31:18.563Z,72.48
2022-10-02T02:33:50.755Z,72.51
2022-10-02T02:36:23.923Z,72.67
2022-10-02T02:38:58.789Z,72.57
2022-10-02T02:41:31.387Z,72.56
2022-10-02T02:44:02.149Z,72.48
2022-10-02T02:46:55.070Z,72.54
2022-10-02T02:49:26.886Z,72.65
2022-10-02T02:51:59.524Z,72.65
2022-10-02T02:54:35.930Z,72.70
2022-10-02T02:57:07.288Z,72.73
2022-10-02T02:59:38.040Z,72.81
2022-10-02T03:02:06.292Z,72.90
2022-10-02T03:04:34.729Z,73.10
2022-10-02T03:07:04.759Z,73.02
2022-10-02T03:09:34.608Z,72.95
2022-10-02T03:12:16.315Z,72.88
2022-10-02T03:15:02.291Z,73.17
2022-10-02T03:17:44.094Z,73.26
2022-10-02T03:20:19.318Z,73.17
2022-10-02T03:22:56.830Z,73.22
2022-10-02T03:25:31.285Z,73.19
2022-10-02T03:28:04.924Z,73.40
2022-10-02T03:30:34.286Z,73.58
2022-10-02T03:33:04.956Z,73.55
2022-10-02T03:35:33.592Z,73.79
2022-10-02T03:38:11.099Z,73.68
2022-10-02T03:40:39.911Z,73.89
2022-10-02T03:43:09.839Z,74.04
2022-10-02T03:45:53.425Z,73.85
2022-10-02T03:48:21.666Z,73.85
2022-10-02T03:50:50.667Z,73.82
2022-10-02T03:53:21.134Z,73.90
2022-10-02T03:55:55.277Z,74.02
2022-10-02T03:58:25.156Z,73.95
2022-10-02T04:00:58.760Z,73.97
2022-10-02T04:03:30.877Z,73.96
2022-10-02T04:06:04.258Z,73.91
2022-10-02T04:08:36.934Z,73.92
2022-10-02T04:11:12.114Z,73.78
2022-10-02T04:13:41.480Z,73.74
2022-10-02T04:16:16.156Z,73.88
2022-10-02T04:18:54.201Z,73.84
2022-10-02T04:21:33.757Z,73.76
2022-10-02T04:24:12.873Z,73.84
2022-10-02T04:26:46.005Z,73.90
2022-10-02T04:29:20.995Z,73.92
2022-10-02T04:31:53.722Z,73.85
2022-10-02T04:34:22.009Z,73.93
2022-10-02T04:37:10.892Z,74.02
2022-10-02T04:39:57.592Z,73.93
2022-10-02T04:42:39.965Z,73.91
2022-10-02T04:45:26.872Z,73.81
2022-10-02T04:48:21.830Z,73.74
2022-10-02T04:50:57.051Z,73.90
2022-10-02T04:53:35.201Z,73.88
2022-10-02T04:56:38.212Z,73.94
2022-10-02T04:59:20.779Z,74.01
2022-10-02T05:01:58.724Z,74.04
2022-10-02T05:04:53.907Z,74.12
2022-10-02T05:07:54.047Z,74.07
2022-10-02T05:10:49.035Z,74.11
2022-10-02T05:13:31.711Z,74.13
2022-10-02T05:16:16.102Z,74.26
2022-10-02T05:19:08.596Z,74.24
2022-10-02T05:21:56.985Z,74.32
2022-10-02T05:24:44.075Z,74.25
2022-10-02T05:27:33.101Z,74.10
2022-10-02T05:30:08.404Z,74.24
2022-10-02T05:32:50.100Z,74.19
2022-10-02T05:35:32.037Z,74.11
2022-10-02T05:38:13.698Z,74.21
2022-10-02T05:40:49.882Z,74.22
2022-10-02T05:43:29.872Z,74.28
2022-10-02T05:46:05.970Z,74.31
2022-10-02T05:48:40.834Z,74.34
2022-10-02T05:51:16.481Z,74.32
2022-10-02T05:53:52.652Z,74.30
2022-10-02T05:56:26.651Z,74.16
2022-10-02T05:59:00.558Z,74.24
2022-10-02T06:01:33.139Z,74.08
2022-10-02T06:04:07.806Z,74.07
2022-10-02T06:06:40.114Z,74.27
2022-10-02T06:09:19.561Z,74.37
2022-10-02T06:11:53.096Z,74.27
2022-10-02T06:14:30.502Z,74.40
2022-10-02T06:17:03.602Z,74.42
2022-10-02T06:19:38.665Z,74.41
2022-10-02T06:22:11.869Z,74.51
2022-10-02T06:24:45.252Z,74.49
2022-10-02T06:27:22.945Z,74.49
2022-10-02T06:29:59.183Z,74.47
2022-10-02T06:32:36.935Z,74.44
2022-10-02T06:35:11.535Z,74.43
2022-10-02T06:37:54.473Z,74.72
2022-10-02T06:40:42.514Z,74.87
2022-10-02T06:43:24.418Z,74.75
2022-10-02T06:46:00.698Z,74.81
2022-10-02T06:48:40.962Z,74.76
2022-10-02T06:51:21.700Z,74.67
2022-10-02T06:54:04.424Z,74.69
2022-10-02T06:56:51.415Z,74.50
2022-10-02T06:59:45.404Z,74.27
2022-10-02T07:02:33.234Z,74.02
2022-10-02T07:05:29.646Z,73.91
2022-10-02T07:08:04.485Z,73.80
2022-10-02T07:10:38.239Z,73.62
2022-10-02T07:13:32.022Z,73.51
2022-10-02T07:16:25.409Z,73.44
2022-10-02T07:19:43.855Z,73.42
2022-10-02T07:22:44.452Z,73.27
2022-10-02T07:25:34.064Z,73.46
2022-10-02T07:28:12.133Z,73.27
2022-10-02T07:30:49.781Z,73.17
2022-10-02T07:33:30.488Z,72.99
2022-10-02T07:36:11.183Z,72.85
2022-10-02T07:39:11.224Z,72.93
2022-10-02T07:42:13.140Z,72.77
2022-10-02T07:45:04.780Z,72.54
2022-10-02T07:47:54.201Z,72.51
2022-10-02T07:50:31.098Z,72.33
2022-10-02T07:53:09.330Z,72.22
2022-10-02T07:55:41.182Z,71.89
2022-10-02T07:58:13.664Z,71.98
2022-10-02T08:00:48.483Z,71.75
2022-10-02T08:03:22.318Z,71.58
2022-10-02T08:05:56.326Z,71.57
2022-10-02T08:08:31.572Z,71.40
2022-10-02T08:11:06.600Z,71.29
2022-10-02T08:13:41.060Z,71.03
2022-10-02T08:16:12.639Z,71.01
2022-10-02T08:18:46.212Z,70.97
2022-10-02T08:21:20.802Z,70.73
2022-10-02T08:23:59.812Z,70.75
2022-10-02T08:26:35.895Z,70.73
2022-10-02T08:29:09.734Z,70.62
2022-10-02T08:31:38.378Z,70.60
2022-10-02T08:34:16.470Z,70.50
2022-10-02T08:37:04.536Z,70.41
2022-10-02T08:40:02.003Z,70.30
2022-10-02T08:43:18.687Z,70.30
2022-10-02T08:46:23.651Z,70.17
2022-10-02T08:49:17.012Z,70.08
2022-10-02T08:52:07.085Z,70.07
2022-10-02T08:55:00.458Z,70.07
2022-10-02T08:57:52.847Z,70.09
2022-10-02T09:00:25.195Z,70.18
2022-10-02T09:03:30.000Z,69.90
2022-10-02T09:06:37.241Z,69.41
2022-10-02T09:09:37.448Z,69.38
2022-10-02T09:12:42.055Z,69.69
2022-10-02T09:15:17.411Z,69.50
2022-10-02T09:18:14.182Z,69.01
2022-10-02T09:21:11.938Z,68.54
2022-10-02T09:24:33.972Z,67.73
2022-10-02T09:27:58.865Z,67.04
2022-10-02T09:30:47.786Z,66.72
2022-10-02T09:33:47.169Z,66.20
2022-10-02T09:36:45.702Z,66.07
2022-10-02T09:40:09.227Z,66.12
2022-10-02T09:43:12.240Z,66.25
2022-10-02T09:46:15.908Z,66.80
2022-10-02T09:49:25.369Z,66.75
2022-10-02T09:52:39.331Z,66.22
2022-10-02T09:55:49.550Z,65.98
2022-10-02T09:59:00.387Z,65.27
2022-10-02T10:02:01.541Z,64.67
2022-10-02T10:05:11.063Z,64.06
2022-10-02T10:08:10.802Z,63.26
2022-10-02T10:11:19.486Z,62.48
2022-10-02T10:14:34.543Z,62.00
2022-10-02T10:17:38.626Z,61.69
2022-10-02T10:20:25.313Z,61.29
2022-10-02T10:23:07.231Z,60.72
2022-10-02T10:26:01.680Z,60.42
2022-10-02T10:28:53.051Z,59.56
2022-10-02T10:32:03.330Z,59.18
2022-10-02T10:35:04.420Z,59.03
2022-10-02T10:38:13.641Z,58.73
2022-10-02T10:41:04.100Z,58.45
2022-10-02T10:44:12.867Z,57.72
2022-10-02T10:47:01.404Z,57.12
2022-10-02T10:50:16.057Z,56.90
2022-10-02T10:53:08.811Z,56.62
2022-10-02T10:56:02.738Z,56.19
2022-10-02T10:58:45.791Z,55.93
2022-10-02T11:01:18.996Z,56.11
2022-10-02T11:04:22.499Z,56.23
2022-10-02T11:07:01.869Z,56.78
2022-10-02T11:10:04.231Z,57.45
2022-10-02T11:13:05.403Z,58.35
2022-10-02T11:16:12.324Z,58.96
2022-10-02T11:19:03.164Z,59.51
2022-10-02T11:21:55.860Z,59.83
2022-10-02T11:25:01.082Z,60.06
2022-10-02T11:27:58.457Z,60.34
2022-10-02T11:30:41.470Z,60.50
2022-10-02T11:33:37.825Z,60.63
2022-10-02T11:36:42.073Z,60.88
2022-10-02T11:39:31.098Z,60.84
2022-10-02T11:42:26.234Z,60.96
2022-10-02T11:45:14.623Z,60.91
2022-10-02T11:48:15.233Z,61.05
2022-10-02T11:50:59.407Z,61.19
2022-10-02T11:54:12.882Z,61.27
2022-10-02T11:57:05.403Z,61.39
2022-10-02T11:59:55.788Z,61.47
2022-10-02T12:02:35.473Z,61.36
2022-10-02T12:05:23.525Z,61.26
2022-10-02T12:08:01.022Z,61.09
2022-10-02T12:10:47.648Z,60.93
2022-10-02T12:13:49.820Z,60.81
2022-10-02T12:16:29.861Z,60.61
2022-10-02T12:19:17.924Z,60.78
2022-10-02T12:22:18.131Z,60.67
2022-10-02T12:25:15.886Z,60.78
2022-10-02T12:28:02.015Z,61.00
2022-10-02T12:30:41.312Z,61.15
2022-10-02T12:33:27.968Z,61.37
2022-10-02T12:36:18.692Z,61.42
2022-10-02T12:39:00.489Z,61.70
2022-10-02T12:41:59.203Z,61.56
2022-10-02T12:45:11.611Z,61.36
2022-10-02T12:48:10.544Z,61.42
2022-10-02T12:51:05.734Z,61.49
2022-10-02T12:54:09.781Z,61.31
2022-10-02T12:57:08.381Z,61.15
2022-10-02T12:59:43.271Z,61.36
2022-10-02T13:03:00.318Z,61.32
2022-10-02T13:05:57.655Z,61.33
2022-10-02T13:08:39.199Z,61.13
2022-10-02T13:11:24.549Z,61.15
2022-10-02T13:14:11.398Z,61.17
2022-10-02T13:17:09.781Z,61.29
2022-10-02T13:19:50.579Z,61.44
2022-10-02T13:22:34.981Z,61.43
2022-10-02T13:25:23.123Z,61.25
2022-10-02T13:28:06.818Z,61.17
2022-10-02T13:30:43.416Z,61.21
2022-10-02T13:33:28.908Z,61.21
2022-10-02T13:36:05.104Z,61.04
2022-10-02T13:39:02.909Z,61.28
2022-10-02T13:41:50.930Z,61.44
2022-10-02T13:44:31.102Z,61.67
2022-10-02T13:47:24.377Z,62.00
2022-10-02T13:50:28.649Z,62.11
2022-10-02T13:53:19.993Z,62.29
2022-10-02T13:55:53.601Z,62.21
2022-10-02T13:58:41.751Z,62.14
2022-10-02T14:01:28.410Z,62.25
2022-10-02T14:04:26.729Z,62.21
2022-10-02T14:07:05.249Z,62.10
2022-10-02T14:09:48.534Z,62.05
2022-10-02T14:12:35.134Z,61.76
2022-10-02T14:15:24.660Z,61.57
2022-10-02T14:18:20.076Z,61.37
2022-10-02T14:20:59.536Z,61.38
2022-10-02T14:23:48.057Z,61.55
2022-10-02T14:26:24.820Z,61.64
2022-10-02T14:29:11.960Z,61.74
2022-10-02T14:32:17.919Z,61.85
2022-10-02T14:35:03.560Z,61.84
2022-10-02T14:38:09.165Z,61.86
2022-10-02T14:40:50.509Z,61.73
2022-10-02T14:44:01.258Z,61.54
2022-10-02T14:46:44.177Z,61.48
2022-10-02T14:49:27.315Z,61.45
2022-10-02T14:52:23.062Z,61.46
2022-10-02T14:55:16.268Z,61.74
2022-10-02T14:58:13.555Z,61.80
2022-10-02T15:00:50.223Z,61.65
2022-10-02T15:03:47.531Z,61.66
2022-10-02T15:06:31.996Z,61.50
2022-10-02T15:09:06.048Z,61.49
2022-10-02T15:12:01.928Z,61.42
2022-10-02T15:14:35.747Z,61.28
2022-10-02T15:17:29.331Z,61.32
2022-10-02T15:20:06.313Z,61.23
2022-10-02T15:22:39.412Z,61.32
2022-10-02T15:25:18.264Z,61.48
2022-10-02T15:28:08.047Z,61.46
2022-10-02T15:30:52.509Z,61.71
2022-10-02T15:33:31.917Z,61.79
2022-10-02T15:36:25.488Z,61.91
2022-10-02T15:39:19.067Z,61.98
2022-10-02T15:42:00.192Z,62.05
2022-10-02T15:45:03.844Z,62.01
2022-10-02T15:47:48.644Z,62.01
2022-10-02T15:50:29.385Z,62.02
2022-10-02T15:53:18.028Z,62.06
2022-10-02T15:55:56.045Z,62.05
2022-10-02T15:58:41.314Z,61.94
2022-10-02T16:01:23.753Z,62.07
2022-10-02T16:04:00.908Z,62.09
2022-10-02T16:06:50.016Z,62.11
2022-10-02T16:09:38.367Z,62.19
2022-10-02T16:12:29.403Z,62.31
2022-10-02T16:15:12.364Z,62.50
2022-10-02T16:18:00.022Z,62.67
2022-10-02T16:20:48.130Z,62.67
2022-10-02T16:23:44.274Z,62.86
2022-10-02T16:26:29.733Z,63.00
2022-10-02T16:29:16.205Z,63.14
2022-10-02T16:31:56.636Z,63.36
2022-10-02T16:34:42.491Z,63.59
2022-10-02T16:37:24.136Z,63.56
2022-10-02T16:39:59.826Z,63.75
2022-10-02T16:42:42.046Z,63.98
2022-10-02T16:45:46.946Z,64.14
2022-10-02T16:48:23.699Z,64.28
2022-10-02T16:51:27.946Z,64.46
2022-10-02T16:54:09.658Z,64.70
2022-10-02T16:56:49.566Z,64.88
2022-10-02T16:59:24.180Z,65.10
2022-10-02T17:02:18.884Z,65.30
2022-10-02T17:05:12.716Z,65.51
2022-10-02T17:07:52.978Z,65.74
2022-10-02T17:10:37.440Z,65.89
2022-10-02T17:13:26.373Z,66.03
2022-10-02T17:15:59.083Z,66.24
2022-10-02T17:18:39.219Z,66.22
2022-10-02T17:21:20.915Z,66.33
2022-10-02T17:24:04.918Z,66.46
2022-10-02T17:26:41.077Z,66.62
2022-10-02T17:29:21.038Z,66.70
2022-10-02T17:31:53.637Z,66.72
2022-10-02T17:34:24.568Z,66.85
2022-10-02T17:37:11.404Z,66.93
2022-10-02T17:39:59.380Z,67.01
2022-10-02T17:42:43.285Z,67.13
2022-10-02T17:45:30.844Z,67.29
2022-10-02T17:48:14.163Z,67.53
2022-10-02T17:51:31.025Z,67.75
2022-10-02T17:54:40.059Z,67.80
2022-10-02T17:57:30.534Z,67.85
2022-10-02T18:00:23.469Z,67.74
2022-10-02T18:03:26.293Z,67.60
2022-10-02T18:06:17.213Z,67.64
2022-10-02T18:09:22.879Z,67.81
2022-10-02T18:12:12.786Z,67.90
2022-10-02T18:15:21.444Z,67.98
2022-10-02T18:18:07.743Z,68.11
2022-10-02T18:20:49.630Z,68.26
2022-10-02T18:23:36.595Z,68.30
2022-10-02T18:26:20.009Z,68.37
2022-10-02T18:29:29.386Z,68.44
2022-10-02T18:32:11.507Z,68.49
2022-10-02T18:35:05.177Z,68.66
2022-10-02T18:37:50.876Z,68.61
2022-10-02T18:40:25.487Z,68.75
2022-10-02T18:43:20.622Z,68.67
2022-10-02T18:46:04.099Z,68.91
2022-10-02T18:48:53.570Z,68.89
2022-10-02T18:51:37.146Z,69.16
2022-10-02T18:54:24.231Z,69.23
2022-10-02T18:57:04.931Z,69.17
2022-10-02T18:59:49.757Z,69.39
2022-10-02T19:02:32.981Z,69.31
2022-10-02T19:05:19.964Z,69.37
2022-10-02T19:07:56.710Z,69.48
2022-10-02T19:10:38.935Z,69.49
2022-10-02T19:13:17.973Z,69.56
2022-10-02T19:15:48.888Z,69.51
2022-10-02T19:18:19.208Z,69.59
2022-10-02T19:20:57.547Z,69.59
2022-10-02T19:23:32.712Z,69.64
2022-10-02T19:26:02.981Z,69.64
2022-10-02T19:28:36.967Z,69.60
2022-10-02T19:31:13.114Z,69.47
2022-10-02T19:33:50.604Z,69.45
2022-10-02T19:36:22.494Z,69.32
2022-10-02T19:38:55.602Z,69.30
2022-10-02T19:41:27.400Z,69.08
2022-10-02T19:44:02.874Z,69.00
2022-10-02T19:46:39.867Z,69.06
2022-10-02T19:49:17.279Z,69.04
2022-10-02T19:51:47.523Z,69.12
2022-10-02T19:54:20.739Z,69.01
2022-10-02T19:57:01.790Z,69.05
2022-10-02T19:59:44.958Z,69.29
2022-10-02T20:02:21.741Z,69.43
2022-10-02T20:04:52.442Z,69.33
2022-10-02T20:07:23.079Z,69.39
2022-10-02T20:10:02.003Z,69.45
2022-10-02T20:12:36.895Z,69.50
2022-10-02T20:15:12.488Z,69.55
2022-10-02T20:17:43.480Z,69.54
2022-10-02T20:20:16.009Z,69.55
2022-10-02T20:22:49.488Z,69.68
2022-10-02T20:25:21.691Z,69.61
2022-10-02T20:27:59.661Z,69.83
2022-10-02T20:30:37.511Z,69.61
2022-10-02T20:33:12.798Z,69.74
2022-10-02T20:35:49.098Z,69.85
2022-10-02T20:38:25.612Z,69.80
2022-10-02T20:40:56.782Z,69.74
2022-10-02T20:43:32.041Z,69.99
2022-10-02T20:46:19.806Z,69.86
2022-10-02T20:49:33.419Z,69.97
2022-10-02T20:52:39.769Z,70.19
2022-10-02T20:55:17.470Z,70.21
2022-10-02T20:58:16.711Z,70.30
2022-10-02T21:01:03.479Z,70.44
2022-10-02T21:06:48.695Z,70.58
2022-10-02T21:09:45.134Z,70.61
2022-10-02T21:12:47.862Z,70.65
2022-10-02T21:15:50.723Z,70.65
2022-10-02T21:18:47.319Z,70.89
2022-10-02T21:21:36.200Z,70.89
2022-10-02T21:24:35.000Z,70.80
2022-10-02T21:27:40.633Z,70.88
2022-10-02T21:30:14.670Z,70.92
2022-10-02T21:33:02.747Z,70.96
2022-10-02T21:35:51.711Z,71.02
2022-10-02T21:38:49.738Z,71.12
2022-10-02T21:42:00.973Z,71.05
2022-10-02T21:45:16.276Z,70.96
2022-10-02T21:48:12.557Z,70.86
2022-10-02T21:51:10.003Z,71.00
2022-10-02T21:54:18.305Z,71.02
2022-10-02T21:57:12.702Z,70.99
2022-10-02T22:00:13.433Z,71.16
2022-10-02T22:03:17.657Z,71.24
2022-10-02T22:06:06.119Z,71.37
2022-10-02T22:08:42.123Z,71.62
2022-10-02T22:11:21.507Z,71.45
2022-10-02T22:13:52.795Z,71.52
2022-10-02T22:16:35.584Z,71.73
2022-10-02T22:19:17.724Z,71.65
2022-10-02T22:22:07.646Z,71.94
2022-10-02T22:24:54.663Z,71.93
2022-10-02T22:27:44.931Z,71.96
2022-10-02T22:30:24.143Z,72.18
2022-10-02T22:33:11.004Z,72.38
2022-10-02T22:36:00.971Z,72.36
2022-10-02T22:38:34.049Z,72.45
2022-10-02T22:41:07.680Z,72.47
2022-10-02T22:43:45.357Z,72.37
2022-10-02T22:46:27.832Z,72.48
2022-10-02T22:49:02.471Z,72.44
2022-10-02T22:51:40.157Z,72.58
2022-10-02T22:54:28.903Z,72.65
2022-10-02T22:57:10.613Z,72.88
2022-10-02T22:59:45.682Z,72.67
2022-10-02T23:02:20.787Z,72.69
2022-10-02T23:04:57.840Z,72.68
2022-10-02T23:07:34.763Z,72.95
2022-10-02T23:10:14.428Z,72.67
2022-10-02T23:12:51.460Z,72.95
2022-10-02T23:15:39.272Z,72.86
2022-10-02T23:18:18.706Z,73.16
2022-10-02T23:20:55.144Z,73.16
2022-10-02T23:23:28.417Z,73.16
2022-10-02T23:26:04.614Z,72.94
2022-10-02T23:28:38.551Z,73.02
2022-10-02T23:31:20.152Z,73.39
2022-10-02T23:34:02.260Z,73.30
2022-10-02T23:36:44.244Z,73.48
2022-10-02T23:39:20.069Z,73.42
2022-10-02T23:41:52.254Z,73.40
2022-10-02T23:44:37.687Z,73.39
2022-10-02T23:47:10.680Z,73.38
2022-10-02T23:49:43.428Z,73.35
2022-10-02T23:52:48.518Z,73.21
2022-10-02T23:55:32.845Z,73.47
2022-10-02T23:58:14.774Z,73.47
